sensor_id;sensor_type;location;lat;lon;timestamp;P1;durP1;ratioP1;P2;durP2;ratioP2
40995;SDS011;26723;57.478;12.066;2022-12-18T00:00:15;19.87;;;8.60;;
40995;SDS011;26723;57.478;12.066;2022-12-18T00:03:24;16.30;;;8.43;;
40995;SDS011;26723;57.478;12.066;2022-12-18T00:06:34;18.60;;;8.27;;
40995;SDS011;26723;57.478;12.066;2022-12-18T00:09:43;21.70;;;7.57;;
40995;SDS011;26723;57.478;12.066;2022-12-18T00:12:51;19.47;;;7.43;;
40995;SDS011;26723;57.478;12.066;2022-12-18T00:16:01;17.33;;;7.07;;
40995;SDS011;26723;57.478;12.066;2022-12-18T00:19:10;17.90;;;7.60;;
40995;SDS011;26723;57.478;12.066;2022-12-18T00:22:21;20.90;;;8.23;;
40995;SDS011;26723;57.478;12.066;2022-12-18T00:25:29;17.93;;;7.83;;
40995;SDS011;26723;57.478;12.066;2022-12-18T00:28:39;15.87;;;7.33;;
40995;SDS011;26723;57.478;12.066;2022-12-18T00:31:48;16.60;;;7.60;;
40995;SDS011;26723;57.478;12.066;2022-12-18T00:34:57;18.60;;;7.57;;
40995;SDS011;26723;57.478;12.066;2022-12-18T00:38:06;16.43;;;8.13;;
40995;SDS011;26723;57.478;12.066;2022-12-18T00:41:15;20.37;;;8.37;;
40995;SDS011;26723;57.478;12.066;2022-12-18T00:44:44;21.63;;;8.70;;
40995;SDS011;26723;57.478;12.066;2022-12-18T00:47:53;26.47;;;10.40;;
40995;SDS011;26723;57.478;12.066;2022-12-18T00:51:02;26.13;;;9.37;;
40995;SDS011;26723;57.478;12.066;2022-12-18T00:54:12;20.57;;;9.20;;
40995;SDS011;26723;57.478;12.066;2022-12-18T00:57:20;22.67;;;8.63;;
40995;SDS011;26723;57.478;12.066;2022-12-18T01:00:28;18.67;;;8.30;;
40995;SDS011;26723;57.478;12.066;2022-12-18T01:03:37;20.47;;;8.60;;
40995;SDS011;26723;57.478;12.066;2022-12-18T01:06:46;19.77;;;8.53;;
40995;SDS011;26723;57.478;12.066;2022-12-18T01:09:57;18.13;;;8.60;;
40995;SDS011;26723;57.478;12.066;2022-12-18T01:13:05;23.60;;;9.30;;
40995;SDS011;26723;57.478;12.066;2022-12-18T01:16:14;19.43;;;8.70;;
40995;SDS011;26723;57.478;12.066;2022-12-18T01:19:23;22.67;;;8.93;;
40995;SDS011;26723;57.478;12.066;2022-12-18T01:22:33;17.53;;;8.57;;
40995;SDS011;26723;57.478;12.066;2022-12-18T01:25:43;20.10;;;8.03;;
40995;SDS011;26723;57.478;12.066;2022-12-18T01:28:53;18.77;;;8.77;;
40995;SDS011;26723;57.478;12.066;2022-12-18T01:32:02;20.63;;;8.70;;
40995;SDS011;26723;57.478;12.066;2022-12-18T01:35:11;18.03;;;8.23;;
40995;SDS011;26723;57.478;12.066;2022-12-18T01:38:19;16.37;;;7.53;;
40995;SDS011;26723;57.478;12.066;2022-12-18T01:41:30;17.03;;;7.00;;
40995;SDS011;26723;57.478;12.066;2022-12-18T01:45:00;14.03;;;6.50;;
40995;SDS011;26723;57.478;12.066;2022-12-18T01:48:12;15.13;;;6.57;;
40995;SDS011;26723;57.478;12.066;2022-12-18T01:51:21;16.83;;;6.70;;
40995;SDS011;26723;57.478;12.066;2022-12-18T01:54:30;14.77;;;6.67;;
40995;SDS011;26723;57.478;12.066;2022-12-18T01:57:40;17.13;;;6.90;;
40995;SDS011;26723;57.478;12.066;2022-12-18T02:00:49;13.33;;;7.13;;
40995;SDS011;26723;57.478;12.066;2022-12-18T02:04:13;15.87;;;6.83;;
40995;SDS011;26723;57.478;12.066;2022-12-18T02:07:30;11.80;;;6.63;;
40995;SDS011;26723;57.478;12.066;2022-12-18T02:10:46;12.03;;;6.60;;
40995;SDS011;26723;57.478;12.066;2022-12-18T02:14:07;18.30;;;7.17;;
40995;SDS011;26723;57.478;12.066;2022-12-18T02:17:22;11.03;;;6.03;;
40995;SDS011;26723;57.478;12.066;2022-12-18T02:20:36;12.23;;;6.13;;
40995;SDS011;26723;57.478;12.066;2022-12-18T02:23:52;16.57;;;6.97;;
40995;SDS011;26723;57.478;12.066;2022-12-18T02:27:11;12.17;;;6.73;;
40995;SDS011;26723;57.478;12.066;2022-12-18T02:30:20;15.17;;;7.20;;
40995;SDS011;26723;57.478;12.066;2022-12-18T02:33:29;11.90;;;6.27;;
40995;SDS011;26723;57.478;12.066;2022-12-18T02:36:40;12.33;;;6.47;;
40995;SDS011;26723;57.478;12.066;2022-12-18T02:39:52;16.33;;;7.00;;
40995;SDS011;26723;57.478;12.066;2022-12-18T02:43:08;13.73;;;6.30;;
40995;SDS011;26723;57.478;12.066;2022-12-18T02:46:24;12.07;;;6.63;;
40995;SDS011;26723;57.478;12.066;2022-12-18T02:49:44;13.03;;;5.93;;
40995;SDS011;26723;57.478;12.066;2022-12-18T02:53:05;11.77;;;6.40;;
40995;SDS011;26723;57.478;12.066;2022-12-18T02:56:21;9.90;;;5.40;;
40995;SDS011;26723;57.478;12.066;2022-12-18T02:59:39;10.33;;;4.80;;
40995;SDS011;26723;57.478;12.066;2022-12-18T03:02:54;11.90;;;5.87;;
40995;SDS011;26723;57.478;12.066;2022-12-18T03:06:08;9.30;;;5.83;;
40995;SDS011;26723;57.478;12.066;2022-12-18T03:09:22;10.37;;;5.50;;
40995;SDS011;26723;57.478;12.066;2022-12-18T03:12:35;11.00;;;5.40;;
40995;SDS011;26723;57.478;12.066;2022-12-18T03:15:50;11.37;;;5.63;;
40995;SDS011;26723;57.478;12.066;2022-12-18T03:19:03;17.63;;;6.40;;
40995;SDS011;26723;57.478;12.066;2022-12-18T03:22:15;14.77;;;7.20;;
40995;SDS011;26723;57.478;12.066;2022-12-18T03:25:28;17.57;;;7.00;;
40995;SDS011;26723;57.478;12.066;2022-12-18T03:28:42;13.70;;;6.67;;
40995;SDS011;26723;57.478;12.066;2022-12-18T03:31:55;13.30;;;6.93;;
40995;SDS011;26723;57.478;12.066;2022-12-18T03:35:11;16.70;;;6.87;;
40995;SDS011;26723;57.478;12.066;2022-12-18T03:38:23;13.53;;;6.63;;
40995;SDS011;26723;57.478;12.066;2022-12-18T03:41:33;21.30;;;6.83;;
40995;SDS011;26723;57.478;12.066;2022-12-18T03:45:00;17.07;;;7.57;;
40995;SDS011;26723;57.478;12.066;2022-12-18T03:48:18;13.53;;;6.63;;
40995;SDS011;26723;57.478;12.066;2022-12-18T03:51:40;14.53;;;6.47;;
40995;SDS011;26723;57.478;12.066;2022-12-18T03:54:52;12.87;;;6.70;;
40995;SDS011;26723;57.478;12.066;2022-12-18T03:58:03;15.00;;;6.80;;
40995;SDS011;26723;57.478;12.066;2022-12-18T04:01:34;11.60;;;5.67;;
40995;SDS011;26723;57.478;12.066;2022-12-18T04:04:47;10.50;;;5.43;;
40995;SDS011;26723;57.478;12.066;2022-12-18T04:07:58;10.00;;;4.77;;
40995;SDS011;26723;57.478;12.066;2022-12-18T04:11:07;9.80;;;5.03;;
40995;SDS011;26723;57.478;12.066;2022-12-18T04:14:17;9.90;;;5.20;;
40995;SDS011;26723;57.478;12.066;2022-12-18T04:17:29;10.97;;;5.17;;
40995;SDS011;26723;57.478;12.066;2022-12-18T04:20:39;10.13;;;4.83;;
40995;SDS011;26723;57.478;12.066;2022-12-18T04:23:47;9.27;;;5.03;;
40995;SDS011;26723;57.478;12.066;2022-12-18T04:26:59;10.40;;;5.00;;
40995;SDS011;26723;57.478;12.066;2022-12-18T04:30:12;12.97;;;5.83;;
40995;SDS011;26723;57.478;12.066;2022-12-18T04:33:20;13.60;;;5.67;;
40995;SDS011;26723;57.478;12.066;2022-12-18T04:36:30;10.90;;;4.93;;
40995;SDS011;26723;57.478;12.066;2022-12-18T04:39:39;13.10;;;5.60;;
40995;SDS011;26723;57.478;12.066;2022-12-18T04:42:54;11.13;;;4.97;;
40995;SDS011;26723;57.478;12.066;2022-12-18T04:46:03;12.53;;;4.80;;
40995;SDS011;26723;57.478;12.066;2022-12-18T04:49:12;8.30;;;4.70;;
40995;SDS011;26723;57.478;12.066;2022-12-18T04:52:22;12.50;;;4.93;;
40995;SDS011;26723;57.478;12.066;2022-12-18T04:55:30;6.10;;;3.97;;
40995;SDS011;26723;57.478;12.066;2022-12-18T04:58:40;7.70;;;4.33;;
40995;SDS011;26723;57.478;12.066;2022-12-18T05:01:49;9.73;;;4.63;;
40995;SDS011;26723;57.478;12.066;2022-12-18T05:04:59;9.10;;;4.20;;
40995;SDS011;26723;57.478;12.066;2022-12-18T05:08:09;5.23;;;3.40;;
40995;SDS011;26723;57.478;12.066;2022-12-18T05:11:17;9.97;;;3.87;;
40995;SDS011;26723;57.478;12.066;2022-12-18T05:14:25;9.10;;;3.70;;
40995;SDS011;26723;57.478;12.066;2022-12-18T05:17:35;6.40;;;3.57;;
40995;SDS011;26723;57.478;12.066;2022-12-18T05:20:43;5.77;;;3.53;;
40995;SDS011;26723;57.478;12.066;2022-12-18T05:23:53;8.20;;;3.87;;
40995;SDS011;26723;57.478;12.066;2022-12-18T05:27:02;6.30;;;3.43;;
40995;SDS011;26723;57.478;12.066;2022-12-18T05:30:10;5.63;;;3.03;;
40995;SDS011;26723;57.478;12.066;2022-12-18T05:33:20;6.27;;;3.50;;
40995;SDS011;26723;57.478;12.066;2022-12-18T05:36:29;4.63;;;3.20;;
40995;SDS011;26723;57.478;12.066;2022-12-18T05:39:39;11.80;;;4.20;;
40995;SDS011;26723;57.478;12.066;2022-12-18T05:42:47;7.87;;;3.50;;
40995;SDS011;26723;57.478;12.066;2022-12-18T05:45:55;5.77;;;3.40;;
40995;SDS011;26723;57.478;12.066;2022-12-18T05:49:04;7.83;;;3.70;;
40995;SDS011;26723;57.478;12.066;2022-12-18T05:52:12;6.20;;;3.17;;
40995;SDS011;26723;57.478;12.066;2022-12-18T05:55:22;7.13;;;3.57;;
40995;SDS011;26723;57.478;12.066;2022-12-18T05:58:30;4.30;;;3.27;;
40995;SDS011;26723;57.478;12.066;2022-12-18T06:01:38;6.03;;;3.50;;
40995;SDS011;26723;57.478;12.066;2022-12-18T06:04:47;5.97;;;3.07;;
40995;SDS011;26723;57.478;12.066;2022-12-18T06:07:56;5.60;;;3.07;;
40995;SDS011;26723;57.478;12.066;2022-12-18T06:11:05;5.90;;;3.20;;
40995;SDS011;26723;57.478;12.066;2022-12-18T06:14:14;10.47;;;4.13;;
40995;SDS011;26723;57.478;12.066;2022-12-18T06:17:26;9.73;;;3.37;;
40995;SDS011;26723;57.478;12.066;2022-12-18T06:20:35;9.33;;;3.60;;
40995;SDS011;26723;57.478;12.066;2022-12-18T06:23:46;9.87;;;2.97;;
40995;SDS011;26723;57.478;12.066;2022-12-18T06:26:55;4.70;;;3.47;;
40995;SDS011;26723;57.478;12.066;2022-12-18T06:30:04;6.30;;;3.90;;
40995;SDS011;26723;57.478;12.066;2022-12-18T06:33:13;7.17;;;3.27;;
40995;SDS011;26723;57.478;12.066;2022-12-18T06:36:22;6.13;;;3.73;;
40995;SDS011;26723;57.478;12.066;2022-12-18T06:39:31;3.97;;;2.53;;
40995;SDS011;26723;57.478;12.066;2022-12-18T06:42:40;7.10;;;3.17;;
40995;SDS011;26723;57.478;12.066;2022-12-18T06:45:49;3.83;;;2.70;;
40995;SDS011;26723;57.478;12.066;2022-12-18T06:48:59;7.47;;;3.53;;
40995;SDS011;26723;57.478;12.066;2022-12-18T06:52:07;6.17;;;3.43;;
40995;SDS011;26723;57.478;12.066;2022-12-18T06:55:15;5.53;;;3.20;;
40995;SDS011;26723;57.478;12.066;2022-12-18T06:58:25;4.63;;;2.60;;
40995;SDS011;26723;57.478;12.066;2022-12-18T07:01:34;7.90;;;3.30;;
40995;SDS011;26723;57.478;12.066;2022-12-18T07:04:43;5.83;;;2.73;;
40995;SDS011;26723;57.478;12.066;2022-12-18T07:07:51;6.87;;;3.07;;
40995;SDS011;26723;57.478;12.066;2022-12-18T07:11:02;5.97;;;3.00;;
40995;SDS011;26723;57.478;12.066;2022-12-18T07:14:13;8.90;;;2.90;;
40995;SDS011;26723;57.478;12.066;2022-12-18T07:17:21;4.90;;;2.87;;
40995;SDS011;26723;57.478;12.066;2022-12-18T07:20:29;4.13;;;2.50;;
40995;SDS011;26723;57.478;12.066;2022-12-18T07:23:38;4.17;;;3.00;;
40995;SDS011;26723;57.478;12.066;2022-12-18T07:26:47;5.47;;;2.83;;
40995;SDS011;26723;57.478;12.066;2022-12-18T07:29:57;6.47;;;3.60;;
40995;SDS011;26723;57.478;12.066;2022-12-18T07:33:05;3.33;;;2.40;;
40995;SDS011;26723;57.478;12.066;2022-12-18T07:36:14;5.13;;;2.70;;
40995;SDS011;26723;57.478;12.066;2022-12-18T07:39:22;7.03;;;2.90;;
40995;SDS011;26723;57.478;12.066;2022-12-18T07:42:30;5.67;;;2.90;;
40995;SDS011;26723;57.478;12.066;2022-12-18T07:45:40;7.33;;;3.17;;
40995;SDS011;26723;57.478;12.066;2022-12-18T07:48:50;6.70;;;3.30;;
40995;SDS011;26723;57.478;12.066;2022-12-18T07:51:58;6.37;;;3.57;;
40995;SDS011;26723;57.478;12.066;2022-12-18T07:55:06;6.90;;;3.67;;
40995;SDS011;26723;57.478;12.066;2022-12-18T07:58:15;8.00;;;4.10;;
40995;SDS011;26723;57.478;12.066;2022-12-18T08:01:25;6.10;;;3.47;;
40995;SDS011;26723;57.478;12.066;2022-12-18T08:04:34;8.40;;;3.90;;
40995;SDS011;26723;57.478;12.066;2022-12-18T08:07:42;7.77;;;3.93;;
40995;SDS011;26723;57.478;12.066;2022-12-18T08:10:51;7.30;;;3.90;;
40995;SDS011;26723;57.478;12.066;2022-12-18T08:13:59;6.27;;;3.63;;
40995;SDS011;26723;57.478;12.066;2022-12-18T08:17:09;7.37;;;3.43;;
40995;SDS011;26723;57.478;12.066;2022-12-18T08:20:17;6.30;;;3.97;;
40995;SDS011;26723;57.478;12.066;2022-12-18T08:23:26;5.33;;;3.43;;
40995;SDS011;26723;57.478;12.066;2022-12-18T08:26:34;7.63;;;3.93;;
40995;SDS011;26723;57.478;12.066;2022-12-18T08:29:42;6.63;;;3.77;;
40995;SDS011;26723;57.478;12.066;2022-12-18T08:32:52;6.17;;;3.67;;
40995;SDS011;26723;57.478;12.066;2022-12-18T08:36:01;9.50;;;3.87;;
40995;SDS011;26723;57.478;12.066;2022-12-18T08:39:10;6.78;;;4.07;;
40995;SDS011;26723;57.478;12.066;2022-12-18T08:42:19;7.57;;;3.77;;
40995;SDS011;26723;57.478;12.066;2022-12-18T08:45:44;8.00;;;4.17;;
40995;SDS011;26723;57.478;12.066;2022-12-18T08:48:55;6.33;;;3.60;;
40995;SDS011;26723;57.478;12.066;2022-12-18T08:52:03;7.93;;;3.40;;
40995;SDS011;26723;57.478;12.066;2022-12-18T08:55:11;7.63;;;3.93;;
40995;SDS011;26723;57.478;12.066;2022-12-18T08:58:20;8.90;;;3.57;;
40995;SDS011;26723;57.478;12.066;2022-12-18T09:01:28;9.53;;;3.80;;
40995;SDS011;26723;57.478;12.066;2022-12-18T09:04:38;9.33;;;4.07;;
40995;SDS011;26723;57.478;12.066;2022-12-18T09:07:47;5.87;;;3.30;;
40995;SDS011;26723;57.478;12.066;2022-12-18T09:10:56;8.90;;;2.93;;
40995;SDS011;26723;57.478;12.066;2022-12-18T09:14:04;9.23;;;3.63;;
40995;SDS011;26723;57.478;12.066;2022-12-18T09:17:12;8.63;;;3.40;;
40995;SDS011;26723;57.478;12.066;2022-12-18T09:20:22;6.47;;;2.97;;
40995;SDS011;26723;57.478;12.066;2022-12-18T09:23:30;7.23;;;2.90;;
40995;SDS011;26723;57.478;12.066;2022-12-18T09:26:39;3.77;;;2.73;;
40995;SDS011;26723;57.478;12.066;2022-12-18T09:29:50;6.80;;;2.33;;
40995;SDS011;26723;57.478;12.066;2022-12-18T09:32:59;6.37;;;2.90;;
40995;SDS011;26723;57.478;12.066;2022-12-18T09:36:09;7.93;;;2.40;;
40995;SDS011;26723;57.478;12.066;2022-12-18T09:39:19;10.13;;;3.30;;
40995;SDS011;26723;57.478;12.066;2022-12-18T09:42:29;6.67;;;2.60;;
40995;SDS011;26723;57.478;12.066;2022-12-18T09:45:42;5.40;;;2.60;;
40995;SDS011;26723;57.478;12.066;2022-12-18T09:48:56;5.20;;;2.70;;
40995;SDS011;26723;57.478;12.066;2022-12-18T09:52:11;4.13;;;2.40;;
40995;SDS011;26723;57.478;12.066;2022-12-18T09:55:24;5.50;;;2.70;;
40995;SDS011;26723;57.478;12.066;2022-12-18T09:58:46;3.13;;;2.13;;
40995;SDS011;26723;57.478;12.066;2022-12-18T10:02:02;5.90;;;2.30;;
40995;SDS011;26723;57.478;12.066;2022-12-18T10:05:24;3.70;;;2.30;;
40995;SDS011;26723;57.478;12.066;2022-12-18T10:08:43;4.10;;;2.20;;
40995;SDS011;26723;57.478;12.066;2022-12-18T10:11:59;2.90;;;2.33;;
40995;SDS011;26723;57.478;12.066;2022-12-18T10:15:13;3.07;;;1.80;;
40995;SDS011;26723;57.478;12.066;2022-12-18T10:18:33;5.73;;;2.70;;
40995;SDS011;26723;57.478;12.066;2022-12-18T10:21:56;6.27;;;1.80;;
40995;SDS011;26723;57.478;12.066;2022-12-18T10:25:18;4.03;;;2.43;;
40995;SDS011;26723;57.478;12.066;2022-12-18T10:28:30;3.67;;;2.07;;
40995;SDS011;26723;57.478;12.066;2022-12-18T10:31:43;5.83;;;2.20;;
40995;SDS011;26723;57.478;12.066;2022-12-18T10:34:52;5.03;;;2.30;;
40995;SDS011;26723;57.478;12.066;2022-12-18T10:38:06;4.97;;;2.47;;
40995;SDS011;26723;57.478;12.066;2022-12-18T10:41:29;6.00;;;2.23;;
40995;SDS011;26723;57.478;12.066;2022-12-18T10:44:38;6.50;;;2.50;;
40995;SDS011;26723;57.478;12.066;2022-12-18T10:47:47;4.50;;;2.20;;
40995;SDS011;26723;57.478;12.066;2022-12-18T10:50:56;4.37;;;2.37;;
40995;SDS011;26723;57.478;12.066;2022-12-18T10:54:21;3.93;;;1.73;;
40995;SDS011;26723;57.478;12.066;2022-12-18T10:57:33;4.50;;;1.97;;
40995;SDS011;26723;57.478;12.066;2022-12-18T11:00:43;2.87;;;2.20;;
40995;SDS011;26723;57.478;12.066;2022-12-18T11:03:59;5.97;;;2.13;;
40995;SDS011;26723;57.478;12.066;2022-12-18T11:07:09;4.10;;;1.60;;
40995;SDS011;26723;57.478;12.066;2022-12-18T11:10:18;4.27;;;1.70;;
40995;SDS011;26723;57.478;12.066;2022-12-18T11:13:29;6.33;;;1.93;;
40995;SDS011;26723;57.478;12.066;2022-12-18T11:16:42;4.63;;;1.50;;
40995;SDS011;26723;57.478;12.066;2022-12-18T11:20:19;5.10;;;2.00;;
40995;SDS011;26723;57.478;12.066;2022-12-18T11:23:29;5.33;;;2.33;;
40995;SDS011;26723;57.478;12.066;2022-12-18T11:26:38;4.53;;;2.03;;
40995;SDS011;26723;57.478;12.066;2022-12-18T11:29:51;4.63;;;2.13;;
40995;SDS011;26723;57.478;12.066;2022-12-18T11:33:01;6.70;;;2.40;;
40995;SDS011;26723;57.478;12.066;2022-12-18T11:36:12;3.20;;;1.87;;
40995;SDS011;26723;57.478;12.066;2022-12-18T11:39:24;6.23;;;2.33;;
40995;SDS011;26723;57.478;12.066;2022-12-18T11:42:41;3.23;;;2.20;;
40995;SDS011;26723;57.478;12.066;2022-12-18T11:45:59;4.83;;;2.13;;
40995;SDS011;26723;57.478;12.066;2022-12-18T11:49:11;4.90;;;1.93;;
40995;SDS011;26723;57.478;12.066;2022-12-18T11:52:23;3.70;;;2.00;;
40995;SDS011;26723;57.478;12.066;2022-12-18T11:55:36;6.23;;;2.13;;
40995;SDS011;26723;57.478;12.066;2022-12-18T11:58:50;6.70;;;2.07;;
40995;SDS011;26723;57.478;12.066;2022-12-18T12:02:14;5.23;;;2.07;;
40995;SDS011;26723;57.478;12.066;2022-12-18T12:05:38;3.67;;;1.73;;
40995;SDS011;26723;57.478;12.066;2022-12-18T12:09:00;3.87;;;1.87;;
40995;SDS011;26723;57.478;12.066;2022-12-18T12:12:19;2.90;;;1.90;;
40995;SDS011;26723;57.478;12.066;2022-12-18T12:15:39;3.60;;;1.60;;
40995;SDS011;26723;57.478;12.066;2022-12-18T12:18:59;3.47;;;1.43;;
40995;SDS011;26723;57.478;12.066;2022-12-18T12:22:17;3.03;;;1.80;;
40995;SDS011;26723;57.478;12.066;2022-12-18T12:25:33;2.13;;;1.80;;
40995;SDS011;26723;57.478;12.066;2022-12-18T12:28:51;3.23;;;2.20;;
40995;SDS011;26723;57.478;12.066;2022-12-18T12:32:13;4.73;;;2.10;;
40995;SDS011;26723;57.478;12.066;2022-12-18T12:35:35;6.30;;;2.20;;
40995;SDS011;26723;57.478;12.066;2022-12-18T12:38:51;3.23;;;1.73;;
40995;SDS011;26723;57.478;12.066;2022-12-18T12:42:04;3.73;;;2.20;;
40995;SDS011;26723;57.478;12.066;2022-12-18T12:45:36;2.33;;;1.77;;
40995;SDS011;26723;57.478;12.066;2022-12-18T12:48:51;1.80;;;1.63;;
40995;SDS011;26723;57.478;12.066;2022-12-18T12:52:05;5.33;;;2.20;;
40995;SDS011;26723;57.478;12.066;2022-12-18T12:55:19;4.77;;;2.07;;
40995;SDS011;26723;57.478;12.066;2022-12-18T12:58:32;8.57;;;2.07;;
40995;SDS011;26723;57.478;12.066;2022-12-18T13:01:49;8.77;;;2.27;;
40995;SDS011;26723;57.478;12.066;2022-12-18T13:05:09;5.50;;;1.90;;
40995;SDS011;26723;57.478;12.066;2022-12-18T13:08:29;2.67;;;1.67;;
40995;SDS011;26723;57.478;12.066;2022-12-18T13:11:41;2.10;;;1.60;;
40995;SDS011;26723;57.478;12.066;2022-12-18T13:15:12;3.17;;;1.47;;
40995;SDS011;26723;57.478;12.066;2022-12-18T13:18:28;4.00;;;1.90;;
40995;SDS011;26723;57.478;12.066;2022-12-18T13:21:37;1.83;;;1.73;;
40995;SDS011;26723;57.478;12.066;2022-12-18T13:24:47;3.53;;;1.70;;
40995;SDS011;26723;57.478;12.066;2022-12-18T13:28:01;8.93;;;2.30;;
40995;SDS011;26723;57.478;12.066;2022-12-18T13:31:12;6.40;;;2.17;;
40995;SDS011;26723;57.478;12.066;2022-12-18T13:34:22;2.80;;;2.00;;
40995;SDS011;26723;57.478;12.066;2022-12-18T13:37:41;5.20;;;1.97;;
40995;SDS011;26723;57.478;12.066;2022-12-18T13:41:01;5.03;;;2.30;;
40995;SDS011;26723;57.478;12.066;2022-12-18T13:44:13;5.00;;;2.47;;
40995;SDS011;26723;57.478;12.066;2022-12-18T13:47:33;7.23;;;2.77;;
40995;SDS011;26723;57.478;12.066;2022-12-18T13:50:47;6.77;;;3.60;;
40995;SDS011;26723;57.478;12.066;2022-12-18T13:53:58;9.10;;;3.40;;
40995;SDS011;26723;57.478;12.066;2022-12-18T13:57:24;10.10;;;4.03;;
40995;SDS011;26723;57.478;12.066;2022-12-18T14:00:34;8.27;;;3.83;;
40995;SDS011;26723;57.478;12.066;2022-12-18T14:03:43;6.83;;;3.67;;
40995;SDS011;26723;57.478;12.066;2022-12-18T14:06:55;15.17;;;4.50;;
40995;SDS011;26723;57.478;12.066;2022-12-18T14:10:11;13.10;;;5.17;;
40995;SDS011;26723;57.478;12.066;2022-12-18T14:13:44;11.73;;;5.23;;
40995;SDS011;26723;57.478;12.066;2022-12-18T14:16:54;11.07;;;5.07;;
40995;SDS011;26723;57.478;12.066;2022-12-18T14:20:03;12.13;;;5.07;;
40995;SDS011;26723;57.478;12.066;2022-12-18T14:23:27;14.77;;;6.20;;
40995;SDS011;26723;57.478;12.066;2022-12-18T14:26:40;15.33;;;6.27;;
40995;SDS011;26723;57.478;12.066;2022-12-18T14:29:50;16.40;;;6.57;;
40995;SDS011;26723;57.478;12.066;2022-12-18T14:32:59;18.00;;;7.40;;
40995;SDS011;26723;57.478;12.066;2022-12-18T14:36:13;17.80;;;8.30;;
40995;SDS011;26723;57.478;12.066;2022-12-18T14:39:24;22.97;;;8.60;;
40995;SDS011;26723;57.478;12.066;2022-12-18T14:42:32;17.35;;;8.85;;
40995;SDS011;26723;57.478;12.066;2022-12-18T14:45:42;22.90;;;9.97;;
40995;SDS011;26723;57.478;12.066;2022-12-18T14:48:53;22.10;;;8.83;;
40995;SDS011;26723;57.478;12.066;2022-12-18T14:52:02;24.00;;;8.90;;
40995;SDS011;26723;57.478;12.066;2022-12-18T14:55:14;26.27;;;8.67;;
40995;SDS011;26723;57.478;12.066;2022-12-18T14:58:23;20.03;;;8.60;;
40995;SDS011;26723;57.478;12.066;2022-12-18T15:01:35;19.70;;;8.43;;
40995;SDS011;26723;57.478;12.066;2022-12-18T15:04:45;18.37;;;8.43;;
40995;SDS011;26723;57.478;12.066;2022-12-18T15:07:54;25.23;;;9.23;;
40995;SDS011;26723;57.478;12.066;2022-12-18T15:14:38;22.60;;;8.50;;
40995;SDS011;26723;57.478;12.066;2022-12-18T15:17:55;25.57;;;9.47;;
40995;SDS011;26723;57.478;12.066;2022-12-18T15:21:07;20.90;;;8.77;;
40995;SDS011;26723;57.478;12.066;2022-12-18T15:24:18;21.43;;;8.47;;
40995;SDS011;26723;57.478;12.066;2022-12-18T15:27:30;15.77;;;7.33;;
40995;SDS011;26723;57.478;12.066;2022-12-18T15:30:53;21.20;;;8.17;;
40995;SDS011;26723;57.478;12.066;2022-12-18T15:34:12;21.87;;;8.73;;
40995;SDS011;26723;57.478;12.066;2022-12-18T15:37:26;24.67;;;8.57;;
40995;SDS011;26723;57.478;12.066;2022-12-18T15:40:35;23.70;;;7.90;;
40995;SDS011;26723;57.478;12.066;2022-12-18T15:43:43;17.40;;;7.77;;
40995;SDS011;26723;57.478;12.066;2022-12-18T15:46:52;17.73;;;8.03;;
40995;SDS011;26723;57.478;12.066;2022-12-18T15:50:02;25.97;;;9.83;;
40995;SDS011;26723;57.478;12.066;2022-12-18T15:53:11;22.63;;;9.47;;
40995;SDS011;26723;57.478;12.066;2022-12-18T15:56:19;20.30;;;9.47;;
40995;SDS011;26723;57.478;12.066;2022-12-18T15:59:45;24.27;;;9.63;;
40995;SDS011;26723;57.478;12.066;2022-12-18T16:02:54;23.30;;;9.47;;
40995;SDS011;26723;57.478;12.066;2022-12-18T16:06:04;26.70;;;9.60;;
40995;SDS011;26723;57.478;12.066;2022-12-18T16:09:12;28.70;;;9.17;;
40995;SDS011;26723;57.478;12.066;2022-12-18T16:12:21;21.63;;;9.33;;
40995;SDS011;26723;57.478;12.066;2022-12-18T16:15:31;26.77;;;10.03;;
40995;SDS011;26723;57.478;12.066;2022-12-18T16:18:40;23.63;;;9.90;;
40995;SDS011;26723;57.478;12.066;2022-12-18T16:21:50;30.23;;;10.70;;
40995;SDS011;26723;57.478;12.066;2022-12-18T16:25:00;25.50;;;9.53;;
40995;SDS011;26723;57.478;12.066;2022-12-18T16:28:08;25.57;;;9.43;;
40995;SDS011;26723;57.478;12.066;2022-12-18T16:31:16;21.37;;;8.23;;
40995;SDS011;26723;57.478;12.066;2022-12-18T16:34:25;23.67;;;8.83;;
40995;SDS011;26723;57.478;12.066;2022-12-18T16:37:36;20.60;;;9.00;;
40995;SDS011;26723;57.478;12.066;2022-12-18T16:40:45;22.97;;;9.30;;
40995;SDS011;26723;57.478;12.066;2022-12-18T16:44:07;22.80;;;9.07;;
40995;SDS011;26723;57.478;12.066;2022-12-18T16:47:16;25.40;;;9.30;;
40995;SDS011;26723;57.478;12.066;2022-12-18T16:50:25;23.40;;;9.13;;
40995;SDS011;26723;57.478;12.066;2022-12-18T16:53:35;23.73;;;9.00;;
40995;SDS011;26723;57.478;12.066;2022-12-18T16:56:45;27.07;;;10.53;;
40995;SDS011;26723;57.478;12.066;2022-12-18T16:59:55;25.77;;;10.17;;
40995;SDS011;26723;57.478;12.066;2022-12-18T17:03:10;26.17;;;11.70;;
40995;SDS011;26723;57.478;12.066;2022-12-18T17:06:19;22.03;;;9.83;;
40995;SDS011;26723;57.478;12.066;2022-12-18T17:09:29;24.40;;;9.83;;
40995;SDS011;26723;57.478;12.066;2022-12-18T17:12:37;32.43;;;10.70;;
40995;SDS011;26723;57.478;12.066;2022-12-18T17:15:45;29.93;;;10.40;;
40995;SDS011;26723;57.478;12.066;2022-12-18T17:18:54;26.30;;;10.70;;
40995;SDS011;26723;57.478;12.066;2022-12-18T17:22:03;26.93;;;9.90;;
40995;SDS011;26723;57.478;12.066;2022-12-18T17:25:12;25.20;;;10.07;;
40995;SDS011;26723;57.478;12.066;2022-12-18T17:28:21;24.37;;;10.33;;
40995;SDS011;26723;57.478;12.066;2022-12-18T17:31:29;27.97;;;10.17;;
40995;SDS011;26723;57.478;12.066;2022-12-18T17:34:38;29.80;;;9.87;;
40995;SDS011;26723;57.478;12.066;2022-12-18T17:37:46;26.57;;;10.70;;
40995;SDS011;26723;57.478;12.066;2022-12-18T17:41:00;24.40;;;10.03;;
40995;SDS011;26723;57.478;12.066;2022-12-18T17:44:08;28.23;;;10.03;;
40995;SDS011;26723;57.478;12.066;2022-12-18T17:47:19;28.03;;;10.77;;
40995;SDS011;26723;57.478;12.066;2022-12-18T17:50:28;30.37;;;11.07;;
40995;SDS011;26723;57.478;12.066;2022-12-18T17:53:36;27.87;;;9.73;;
40995;SDS011;26723;57.478;12.066;2022-12-18T17:56:47;27.00;;;9.93;;
40995;SDS011;26723;57.478;12.066;2022-12-18T17:59:56;24.43;;;9.70;;
40995;SDS011;26723;57.478;12.066;2022-12-18T18:03:04;24.73;;;10.87;;
40995;SDS011;26723;57.478;12.066;2022-12-18T18:06:13;22.90;;;10.30;;
40995;SDS011;26723;57.478;12.066;2022-12-18T18:09:21;23.80;;;10.10;;
40995;SDS011;26723;57.478;12.066;2022-12-18T18:12:31;25.33;;;9.73;;
40995;SDS011;26723;57.478;12.066;2022-12-18T18:16:12;22.37;;;9.13;;
40995;SDS011;26723;57.478;12.066;2022-12-18T18:19:21;24.37;;;9.27;;
40995;SDS011;26723;57.478;12.066;2022-12-18T18:22:31;21.00;;;9.27;;
40995;SDS011;26723;57.478;12.066;2022-12-18T18:25:40;19.90;;;9.50;;
40995;SDS011;26723;57.478;12.066;2022-12-18T18:28:50;27.17;;;10.93;;
40995;SDS011;26723;57.478;12.066;2022-12-18T18:32:02;20.77;;;9.37;;
40995;SDS011;26723;57.478;12.066;2022-12-18T18:35:11;23.20;;;9.00;;
40995;SDS011;26723;57.478;12.066;2022-12-18T18:38:40;20.17;;;9.80;;
40995;SDS011;26723;57.478;12.066;2022-12-18T18:41:54;23.57;;;9.50;;
40995;SDS011;26723;57.478;12.066;2022-12-18T18:45:04;19.23;;;9.20;;
40995;SDS011;26723;57.478;12.066;2022-12-18T18:48:13;17.43;;;9.13;;
40995;SDS011;26723;57.478;12.066;2022-12-18T18:51:21;18.97;;;8.60;;